^^
Grace C. Lehan Memorial Weather Station Historical Data
Daily Summary for June 22, 2021 Units:  Metric    English   Both
Daily Weekly Monthly Yearly
  High: Low: Average:
Temperature: 24.3 °C 15.6 °C 20.4 °C
Dew Point: 22.2 °C 13.8 °C 18.2 °C
Humidity: 95% 70.7% 88%
Wind Speed: 8.9km/h 0km/h 1km/h
Wind Gust: 22.5km/h - -
Wind- - WNW
Pressure: 1009.7 hPa 1000.9 hPa -
Precipitation: 4.83 mm    
 
 
Tabular Data for June 22, 2021
Time Temperature Dew Point Pressure Wind Wind Speed Wind Gust Humidity Rainfall Rate (Hourly) solar
00:04 23.1 °C 21.2 °C 1001.6 hPa Calm     89% 0 mm 0 W/m2
00:09 23.1 °C 21.2 °C 1001.6 hPa Calm     89% 0 mm 0 W/m2
00:14 23.1 °C 21.1 °C 1001.6 hPa Calm     89% 0 mm 0 W/m2
00:19 23 °C 21.1 °C 1001.6 hPa Calm     89% 0 mm 0 W/m2
00:24 22.9 °C 21.1 °C 1001.2 hPa Calm     89% 0 mm 0 W/m2
00:29 22.9 °C 21 °C 1001.6 hPa Calm     89% 0 mm 0 W/m2
00:34 22.9 °C 21 °C 1001.6 hPa Calm     89% 0 mm 0 W/m2
00:39 22.9 °C 21.2 °C 1001.6 hPa Calm     90% 0 mm 0 W/m2
00:44 22.9 °C 21.2 °C 1001.6 hPa Calm     90% 0 mm 0 W/m2
00:49 22.9 °C 21.2 °C 1001.6 hPa Calm     90% 0 mm 0 W/m2
00:54 22.9 °C 21.2 °C 1001.6 hPa Calm     90% 0 mm 0 W/m2
00:59 22.9 °C 21.2 °C 1001.9 hPa Calm     90% 0 mm 0 W/m2
01:04 22.9 °C 21.2 °C 1001.9 hPa Calm     90% 0 mm 0 W/m2
01:09 22.8 °C 21.1 °C 1001.6 hPa Calm     90% 0 mm 0 W/m2
01:14 22.8 °C 21.1 °C 1001.6 hPa Calm     90% 0 mm 0 W/m2
01:19 22.8 °C 21.1 °C 1001.6 hPa Calm     90% 0 mm 0 W/m2
01:24 22.7 °C 21 °C 1001.6 hPa Calm     90% 0 mm 0 W/m2
01:29 22.7 °C 21 °C 1001.6 hPa Calm     90.4% 0 mm 0 W/m2
01:34 22.6 °C 21.1 °C 1001.6 hPa Calm     91% 0 mm 0 W/m2
01:39 22.6 °C 21.1 °C 1001.6 hPa Calm     91% 0 mm 0 W/m2
01:44 22.6 °C 21 °C 1001.2 hPa Calm     91% 0 mm 0 W/m2
01:49 22.5 °C 20.9 °C 1001.2 hPa Calm     91% 0 mm 0 W/m2
01:54 22.4 °C 20.9 °C 1001.2 hPa Calm     91% 0 mm 0 W/m2
01:59 22.4 °C 20.9 °C 1001.2 hPa Calm     91% 0 mm 0 W/m2
02:04 22.4 °C 20.9 °C 1001.2 hPa Calm     91% 0 mm 0 W/m2
02:09 22.4 °C 20.9 °C 1001.2 hPa Calm     91.7% 0 mm 0 W/m2
02:14 22.3 °C 21 °C 1001.2 hPa Calm     92% 0 mm 0 W/m2
02:19 22.3 °C 21 °C 1001.2 hPa Calm     92% 0 mm 0 W/m2
02:24 22.3 °C 20.9 °C 1000.9 hPa Calm     92% 0 mm 0 W/m2
02:29 22.3 °C 20.9 °C 1001.2 hPa Calm     92% 0 mm 0 W/m2
02:34 22.3 °C 20.9 °C 1001.2 hPa Calm     92% 0 mm 0 W/m2
02:39 22.3 °C 20.9 °C 1001.2 hPa Calm     92% 0 mm 0 W/m2
02:44 22.3 °C 20.9 °C 1001.2 hPa Calm     92% 0 mm 0 W/m2
02:49 22.3 °C 20.9 °C 1001.2 hPa Calm     92% 0 mm 0 W/m2
02:54 22.3 °C 20.9 °C 1001.2 hPa Calm     92% 0 mm 0 W/m2
02:59 22.3 °C 20.9 °C 1001.2 hPa Calm     92.1% 0 mm 0 W/m2
03:04 22.3 °C 21.1 °C 1001.2 hPa Calm     93% 0 mm 0 W/m2
03:09 22.2 °C 21.1 °C 1001.2 hPa Calm     93% 0 mm 0 W/m2
03:14 22.2 °C 21 °C 1001.2 hPa Calm     92.7% 0 mm 0 W/m2
03:19 22.2 °C 20.9 °C 1001.2 hPa Calm     92% 0 mm 0 W/m2
03:24 22.2 °C 21 °C 1001.2 hPa Calm     92.8% 0 mm 0 W/m2
03:29 22.2 °C 21 °C 1001.2 hPa Calm     93% 0 mm 0 W/m2
03:34 22.2 °C 21 °C 1001.2 hPa Calm     93% 0 mm 0 W/m2
03:39 22.2 °C 21 °C 1001.2 hPa Calm     93% 0 mm 0 W/m2
03:44 22.2 °C 21 °C 1001.2 hPa Calm     93% 0 mm 0 W/m2
03:49 22.2 °C 21 °C 1001.2 hPa Calm     93% 0 mm 0 W/m2
03:54 22.2 °C 21 °C 1001.2 hPa Calm     93% 0 mm 0 W/m2
03:59 22.1 °C 20.9 °C 1001.2 hPa Calm     93% 0 mm 0 W/m2
04:04 22.1 °C 20.9 °C 1001.2 hPa Calm     93% 0 mm 0 W/m2
04:09 22.1 °C 20.9 °C 1001.2 hPa Calm     93% 0 mm 0 W/m2
04:14 22.1 °C 20.9 °C 1001.2 hPa Calm     93% 0 mm 0 W/m2
04:19 22 °C 20.8 °C 1001.2 hPa Calm     93% 0 mm 0 W/m2
04:24 21.9 °C 20.8 °C 1000.9 hPa Calm     93% 0 mm 0 W/m2
04:29 21.9 °C 20.7 °C 1000.9 hPa Calm     93% 0 mm 0 W/m2
04:34 21.9 °C 20.7 °C 1000.9 hPa Calm     93% 0 mm 0 W/m2
04:39 21.8 °C 20.7 °C 1000.9 hPa Calm     93% 0 mm 0 W/m2
04:44 21.8 °C 20.7 °C 1000.9 hPa Calm     93% 0 mm 0 W/m2
04:49 21.8 °C 20.6 °C 1000.9 hPa Calm     93% 0 mm 0 W/m2
04:54 21.8 °C 20.6 °C 1001.2 hPa Calm     93% 0 mm 0 W/m2
04:59 21.8 °C 20.6 °C 1001.2 hPa Calm     93% 0 mm 0 W/m2
05:04 21.8 °C 20.7 °C 1001.2 hPa Calm     93.3% 0 mm 0 W/m2
05:09 21.8 °C 20.8 °C 1001.2 hPa Calm     94% 0 mm 0 W/m2
05:14 21.8 °C 20.8 °C 1001.2 hPa Calm     94% 0 mm 0 W/m2
05:19 21.8 °C 20.8 °C 1001.6 hPa Calm     94% 0 mm 0 W/m2
05:24 21.8 °C 20.8 °C 1001.6 hPa Calm     94% 0 mm 0 W/m2
05:29 21.7 °C 20.7 °C 1001.6 hPa Calm     94% 0 mm 5 W/m2
05:34 21.7 °C 20.7 °C 1001.6 hPa Calm     94% 0 mm 5 W/m2
05:39 21.7 °C 20.7 °C 1001.9 hPa Calm     94% 0 mm 7 W/m2
05:44 21.7 °C 20.7 °C 1001.9 hPa Calm     94% 0 mm 9 W/m2
05:49 21.7 °C 20.7 °C 1001.9 hPa Calm     94% 0 mm 11 W/m2
05:54 21.7 °C 20.7 °C 1001.9 hPa Calm     94% 0 mm 11 W/m2
05:59 21.7 °C 20.7 °C 1001.9 hPa Calm     94% 0 mm 11 W/m2
06:04 21.8 °C 20.8 °C 1001.9 hPa Calm     94% 0 mm 12 W/m2
06:09 21.8 °C 20.8 °C 1001.9 hPa Calm     94% 0 mm 19 W/m2
06:14 21.8 °C 20.8 °C 1001.9 hPa Calm     94% 0 mm 25 W/m2
06:19 21.8 °C 20.8 °C 1001.9 hPa Calm     94% 0 mm 26 W/m2
06:24 21.8 °C 20.8 °C 1002.3 hPa Calm     94% 0 mm 23 W/m2
06:29 21.9 °C 20.9 °C 1002.3 hPa Calm     94% 0 mm 23 W/m2
06:34 21.9 °C 21.1 °C 1002.3 hPa Calm     94.5% 0 mm 28 W/m2
06:39 21.9 °C 21.1 °C 1002.6 hPa Calm     95% 0 mm 39 W/m2
06:44 22 °C 21.2 °C 1002.6 hPa Calm     95% 0 mm 54 W/m2
06:49 22.1 °C 21.2 °C 1002.6 hPa Calm     95% 0 mm 56 W/m2
06:54 22.1 °C 21.2 °C 1002.6 hPa Calm     94.7% 0 mm 54 W/m2
06:59 22.2 °C 21.3 °C 1002.6 hPa Calm     94.5% 0 mm 58 W/m2
07:04 22.3 °C 21.4 °C 1002.9 hPa Calm     95% 0 mm 67 W/m2
07:09 22.4 °C 21.6 °C 1002.9 hPa Calm     95% 0 mm 69 W/m2
07:14 22.6 °C 21.7 °C 1002.9 hPa Calm     95% 0 mm 79 W/m2
07:19 22.8 °C 21.9 °C 1003.3 hPa Calm     95% 0 mm 60 W/m2
07:24 22.9 °C 21.9 °C 1003.3 hPa Calm     94.4% 0 mm 102 W/m2
07:29 22.9 °C 21.9 °C 1003.3 hPa Calm     94% 0 mm 165 W/m2
07:34 23.1 °C 22.1 °C 1003.3 hPa Calm     94% 0 mm 227 W/m2
07:39 23.3 °C 22.2 °C 1002.9 hPa Calm     93.5% 0 mm 227 W/m2
07:44 23.5 °C 22.1 °C 1003.3 hPa SW 0.6 km/h 4.8 km/h 91.7% 0 mm 54 W/m2
07:49 23.6 °C 21.8 °C 1003.6 hPa WSW 0.5 km/h 6.4 km/h 90% 0 mm 44 W/m2
07:54 23.7 °C 21.7 °C 1003.6 hPa Calm   6.4 km/h 89% 0 mm 49 W/m2
07:59 23.7 °C 21.8 °C 1003.6 hPa West 0.2 km/h 6.4 km/h 89% 0 mm 46 W/m2
08:00 23.7 °C 21.8 °C 1003.6 hPa Calm   6.4 km/h 89% 0 mm 44 W/m2
08:09 23.5 °C 20.9 °C 1003.9 hPa ENE 0.2 km/h 3.2 km/h 85.5% 0 mm 46 W/m2
08:14 23.3 °C 20.6 °C 1003.9 hPa NNW 0.6 km/h 8 km/h 84.2% 0 mm 44 W/m2
08:19 23.3 °C 20.2 °C 1003.9 hPa NNW 0.3 km/h 8 km/h 83.1% 0 mm 90 W/m2
08:24 23.2 °C 20.1 °C 1003.9 hPa Calm   8 km/h 82.5% 0 mm 81 W/m2
08:29 23.2 °C 20.1 °C 1003.9 hPa NNW 0.5 km/h 8 km/h 82.5% 0 mm 144 W/m2
08:34 23.2 °C 20.1 °C 1003.9 hPa NNW 0.8 km/h 8 km/h 82.4% 0 mm 202 W/m2
08:39 23.3 °C 19.8 °C 1003.9 hPa NW 2.1 km/h 11.3 km/h 80.8% 0 mm 612 W/m2
08:44 23.6 °C 20.1 °C 1003.9 hPa NW 1.9 km/h 11.3 km/h 81% 0 mm 612 W/m2
08:49 23.9 °C 20 °C 1003.9 hPa NNW 2.3 km/h 11.3 km/h 78.7% 0 mm 285 W/m2
08:54 24.2 °C 19.9 °C 1003.9 hPa NW 2.3 km/h 17.7 km/h 76.9% 0 mm 213 W/m2
08:59 24.2 °C 19.6 °C 1004.3 hPa WNW 2.9 km/h 17.7 km/h 75.1% 0 mm 265 W/m2
09:04 24.2 °C 19.6 °C 1004.3 hPa NNW 1.9 km/h 17.7 km/h 75.5% 0 mm 355 W/m2
09:09 24.2 °C 19.3 °C 1004.3 hPa North 0.2 km/h 11.3 km/h 73.9% 0 mm 417 W/m2
09:14 24.3 °C 19.2 °C 1004.3 hPa NW 4.3 km/h 14.5 km/h 73.3% 0 mm 220 W/m2
09:19 24.2 °C 18.8 °C 1004.3 hPa NW 1.9 km/h 14.5 km/h 71.9% 0 mm 169 W/m2
09:24 24 °C 18.6 °C 1004.6 hPa NNW 4 km/h 22.5 km/h 71.9% 0 mm 204 W/m2
09:29 23.7 °C 18.1 °C 1004.6 hPa NNW 3.9 km/h 22.5 km/h 70.7% 0 mm 156 W/m2
09:34 23.5 °C 18.2 °C 1004.3 hPa NW 2.7 km/h 22.5 km/h 72% 0 mm 134 W/m2
09:39 23.3 °C 17.9 °C 1004.6 hPa NW 1.8 km/h 14.5 km/h 72% 0 mm 134 W/m2
09:44 23.1 °C 18.1 °C 1004.6 hPa NW 1 km/h 14.5 km/h 73.4% 0 mm 264 W/m2
09:49 23.1 °C 18.2 °C 1004.6 hPa NW 1.3 km/h 14.5 km/h 73.9% 0 mm 264 W/m2
09:54 23.1 °C 18.3 °C 1004.6 hPa NW 1.1 km/h 14.5 km/h 74.3% 0 mm 236 W/m2
09:59 23.2 °C 18.3 °C 1004.6 hPa NNW 3.4 km/h 14.5 km/h 74.4% 0 mm 279 W/m2
10:04 23.2 °C 18.1 °C 1004.6 hPa NNW 6.9 km/h 20.9 km/h 72.8% 0 mm 279 W/m2
10:09 23.1 °C 17.8 °C 1004.6 hPa NW 3.9 km/h 20.9 km/h 72% 0 mm 200 W/m2
10:14 23.1 °C 18.2 °C 1005 hPa Calm   20.9 km/h 74% 0 mm 183 W/m2
10:19 23.1 °C 18 °C 1005 hPa WNW 5.1 km/h 20.9 km/h 72.8% 0 mm 297 W/m2
10:24 23.1 °C 17.6 °C 1004.6 hPa NW 3.9 km/h 20.9 km/h 71.3% 0 mm 313 W/m2
10:29 23.1 °C 17.9 °C 1005 hPa WNW 4 km/h 20.9 km/h 72.7% 0 mm 313 W/m2
10:34 23.1 °C 17.7 °C 1005 hPa NW 6.4 km/h 22.5 km/h 71.5% 0 mm 311 W/m2
10:39 23.1 °C 17.6 °C 1005 hPa NW 7.2 km/h 22.5 km/h 71.2% 0 mm 202 W/m2
10:44 23 °C 17.5 °C 1005 hPa NW 2.4 km/h 22.5 km/h 71.3% 0 mm 218 W/m2
10:49 22.9 °C 17.7 °C 1005 hPa WNW 5.1 km/h 22.5 km/h 72.3% 0 mm 218 W/m2
10:54 22.8 °C 17.4 °C 1005.3 hPa WNW 6.8 km/h 22.5 km/h 71.3% 0 mm 221 W/m2
10:59 22.7 °C 17.2 °C 1005.3 hPa WNW 6.1 km/h 22.5 km/h 71% 0 mm 334 W/m2
11:04 22.6 °C 17.1 °C 1005.3 hPa WNW 5 km/h 22.5 km/h 71.2% 0 mm 209 W/m2
11:09 22.4 °C 17 °C 1005.3 hPa WNW 4.3 km/h 17.7 km/h 71.4% 0 mm 132 W/m2
11:14 22.3 °C 16.8 °C 1005.3 hPa WNW 2.7 km/h 17.7 km/h 71.2% 0 mm 130 W/m2
11:19 22.1 °C 16.8 °C 1005.3 hPa NW 2.1 km/h 17.7 km/h 72% 0 mm 120 W/m2
11:24 22.1 °C 16.9 °C 1005.6 hPa NW 1.3 km/h 17.7 km/h 72.9% 0 mm 116 W/m2
11:29 21.9 °C 17 °C 1005.3 hPa NNW 1.9 km/h 17.7 km/h 73.3% 0 mm 123 W/m2
11:34 21.9 °C 16.7 °C 1005.3 hPa NNW 2.6 km/h 17.7 km/h 72.3% 0 mm 165 W/m2
11:39 21.8 °C 16.7 °C 1005 hPa NNW 2.1 km/h 14.5 km/h 72.7% 0 mm 179 W/m2
11:44 21.8 °C 17.1 °C 1005.3 hPa NNW 1.6 km/h 14.5 km/h 74.6% 0 mm 183 W/m2
11:49 21.7 °C 17 °C 1005.3 hPa NW 1.4 km/h 14.5 km/h 74.7% 0 mm 134 W/m2
11:54 21.6 °C 17.3 °C 1005.3 hPa NW 0.6 km/h 14.5 km/h 76.7% 0 mm 148 W/m2
11:59 21.6 °C 17.4 °C 1005.3 hPa NW 1 km/h 14.5 km/h 77.5% 0 mm 195 W/m2
12:00 21.6 °C 17.3 °C 1005.3 hPa WNW 8.9 km/h 14.5 km/h 77% 0 mm 195 W/m2
12:09 21.5 °C 17 °C 1005.3 hPa North 2.9 km/h 11.3 km/h 75.4% 0 mm 181 W/m2
12:14 21.5 °C 16.9 °C 1005.3 hPa North 1.6 km/h 11.3 km/h 75.2% 0 mm 241 W/m2
12:19 21.4 °C 16.7 °C 1005.3 hPa NNW 1.3 km/h 11.3 km/h 74.5% 0 mm 241 W/m2
12:24 21.4 °C 16.9 °C 1005.3 hPa NW 0.8 km/h 11.3 km/h 75.3% 0 mm 172 W/m2
12:29 21.5 °C 17 °C 1005.3 hPa NNW 1 km/h 11.3 km/h 75.6% 0 mm 178 W/m2
12:34 21.6 °C 16.6 °C 1005.3 hPa NNW 3.4 km/h 11.3 km/h 73.4% 0 mm 181 W/m2
12:39 21.6 °C 16.3 °C 1005.6 hPa NW 3.7 km/h 17.7 km/h 72.1% 0 mm 130 W/m2
12:44 21.4 °C 16.4 °C 1005.6 hPa NW 2.3 km/h 17.7 km/h 73% 0 mm 97 W/m2
12:49 21.3 °C 16.3 °C 1006 hPa NNW 1.1 km/h 17.7 km/h 73% 0 mm 74 W/m2
12:54 21.2 °C 16.3 °C 1006 hPa NNW 1.1 km/h 17.7 km/h 73.6% 0 mm 69 W/m2
12:59 21.1 °C 16.2 °C 1006.3 hPa NW 2.4 km/h 17.7 km/h 73.8% 0 mm 58 W/m2
13:04 20.9 °C 16.2 °C 1006 hPa NW 0.6 km/h 17.7 km/h 74% 0 mm 56 W/m2
13:09 20.8 °C 16.3 °C 1006 hPa NW 1 km/h 9.7 km/h 75.1% 0 mm 47 W/m2
13:14 20.8 °C 16.6 °C 1006 hPa NW 1.4 km/h 14.5 km/h 76.5% 0.25 mm 58 W/m2
13:19 20.7 °C 16.7 °C 1006 hPa WNW 1.9 km/h 14.5 km/h 77.6% 0.25 mm 53 W/m2
13:24 20.6 °C 16.8 °C 1006 hPa NW 1.6 km/h 14.5 km/h 79.3% 0.25 mm 47 W/m2
13:29 20.3 °C 16.9 °C 1006 hPa NW 1.6 km/h 14.5 km/h 80.7% 0.25 mm 88 W/m2
13:34 20.2 °C 16.9 °C 1005.6 hPa NNE 0.3 km/h 14.5 km/h 81.7% 0.25 mm 105 W/m2
13:39 20 °C 16.9 °C 1005.3 hPa NNW 1 km/h 6.4 km/h 82.3% 0.25 mm 105 W/m2
13:44 19.8 °C 16.7 °C 1005.3 hPa NNW 1.3 km/h 6.4 km/h 82.3% 0.25 mm 63 W/m2
13:49 19.7 °C 16.8 °C 1005.3 hPa NW 1.1 km/h 6.4 km/h 83% 0.25 mm 35 W/m2
13:54 19.6 °C 16.6 °C 1005.3 hPa NW 1.1 km/h 8 km/h 83% 0.51 mm 42 W/m2
13:59 19.4 °C 16.7 °C 1005.3 hPa NW 2.3 km/h 14.5 km/h 83.9% 0.51 mm 42 W/m2
14:04 19.2 °C 16.6 °C 1005.6 hPa NW 3.1 km/h 14.5 km/h 84.7% 0.51 mm 37 W/m2
14:09 19 °C 16.4 °C 1005.6 hPa NW 2.3 km/h 9.7 km/h 85% 0.51 mm 37 W/m2
14:14 18.8 °C 16.2 °C 1005.6 hPa NW 2.1 km/h 16.1 km/h 85% 0.51 mm 53 W/m2
14:19 18.6 °C 16 °C 1005.6 hPa NW 0.8 km/h 16.1 km/h 85% 0.51 mm 58 W/m2
14:24 18.4 °C 15.9 °C 1005.6 hPa NW 1.1 km/h 16.1 km/h 85.1% 0.51 mm 56 W/m2
14:29 18.4 °C 16 °C 1005.6 hPa NW 0.3 km/h 16.1 km/h 86% 0.51 mm 42 W/m2
14:34 18.3 °C 16.1 °C 1005.6 hPa Calm   16.1 km/h 86.5% 0.51 mm 37 W/m2
14:39 18.3 °C 16.1 °C 1005.6 hPa NW 0.2 km/h 4.8 km/h 87% 0.25 mm 47 W/m2
14:44 18.3 °C 16.1 °C 1005.3 hPa NW 0.3 km/h 4.8 km/h 87% 0.51 mm 63 W/m2
14:49 18.2 °C 16.1 °C 1005.3 hPa North 0.3 km/h 8 km/h 87.2% 0.76 mm 70 W/m2
14:54 18.1 °C 16.1 °C 1005.3 hPa North 0.6 km/h 8 km/h 87.6% 0.76 mm 53 W/m2
14:59 18.1 °C 16.2 °C 1005.3 hPa NNW 0.3 km/h 8 km/h 88.7% 1.02 mm 58 W/m2
15:04 18 °C 16.2 °C 1005.3 hPa Calm   8 km/h 89.2% 1.02 mm 47 W/m2
15:09 18 °C 16.3 °C 1005.3 hPa NNW 0.2 km/h 4.8 km/h 90% 0.76 mm 33 W/m2
15:14 17.9 °C 16.3 °C 1005.3 hPa Calm   4.8 km/h 90% 1.02 mm 47 W/m2
15:19 17.8 °C 16.2 °C 1005.6 hPa NNW 0.8 km/h 6.4 km/h 90% 1.02 mm 53 W/m2
15:24 17.7 °C 16.1 °C 1006 hPa Calm   6.4 km/h 90.3% 1.27 mm 56 W/m2
15:29 17.7 °C 16.2 °C 1006 hPa Calm   6.4 km/h 91% 1.52 mm 63 W/m2
15:34 17.8 °C 16.3 °C 1006 hPa Calm   6.4 km/h 91% 1.52 mm 77 W/m2
15:39 17.7 °C 16.3 °C 1006 hPa Calm     91.1% 1.52 mm 74 W/m2
15:44 17.7 °C 16.4 °C 1006 hPa Calm     92% 1.78 mm 100 W/m2
15:49 17.8 °C 16.4 °C 1005.6 hPa Calm     92% 1.78 mm 100 W/m2
15:54 17.7 °C 16.4 °C 1005.6 hPa Calm     92% 1.78 mm 88 W/m2
15:59 17.8 °C 16.5 °C 1005.6 hPa Calm     92% 1.78 mm 86 W/m2
16:00 17.8 °C 16.5 °C 1005.3 hPa Calm     92% 1.78 mm 77 W/m2
16:09 17.8 °C 16.5 °C 1005.3 hPa North 0.2 km/h 3.2 km/h 92% 1.02 mm 62 W/m2
16:14 17.7 °C 16.4 °C 1005.6 hPa Calm   3.2 km/h 92% 1.02 mm 51 W/m2
16:19 17.7 °C 16.4 °C 1005.6 hPa Calm   3.2 km/h 92% 1.02 mm 67 W/m2
16:24 17.7 °C 16.4 °C 1005.6 hPa Calm   3.2 km/h 92% 1.02 mm 70 W/m2
16:29 17.7 °C 16.4 °C 1006 hPa Calm   3.2 km/h 92.2% 1.02 mm 76 W/m2
16:34 17.8 °C 16.7 °C 1005.6 hPa Calm   3.2 km/h 93% 1.02 mm 60 W/m2
16:39 17.9 °C 16.8 °C 1005.3 hPa Calm     93% 0.51 mm 62 W/m2
16:44 17.9 °C 16.8 °C 1005.6 hPa Calm     93% 0.76 mm 60 W/m2
16:49 17.9 °C 16.8 °C 1006 hPa Calm     93% 0.76 mm 32 W/m2
16:54 17.9 °C 16.8 °C 1006 hPa NNE 0.3 km/h 3.2 km/h 93% 0.76 mm 37 W/m2
16:59 17.9 °C 16.7 °C 1006 hPa North 0.2 km/h 3.2 km/h 93% 0.76 mm 39 W/m2
17:04 17.8 °C 16.7 °C 1006 hPa NW 0.8 km/h 6.4 km/h 93% 0.76 mm 56 W/m2
17:09 17.8 °C 16.7 °C 1006 hPa NW 0.8 km/h 6.4 km/h 93% 0.51 mm 56 W/m2
17:14 17.9 °C 16.7 °C 1005.3 hPa NW 1.6 km/h 6.4 km/h 93% 0.51 mm 51 W/m2
17:19 17.8 °C 16.7 °C 1005.3 hPa NW 1.3 km/h 8 km/h 93% 0.76 mm 32 W/m2
17:24 17.7 °C 16.6 °C 1007 hPa WNW 2.6 km/h 14.5 km/h 93% 0.76 mm 30 W/m2
17:29 17.7 °C 16.5 °C 1007.3 hPa West 4 km/h 14.5 km/h 93% 0.76 mm 35 W/m2
17:34 17.7 °C 16.5 °C 1007 hPa WNW 7.1 km/h 20.9 km/h 93% 0.76 mm 42 W/m2
17:39 17.6 °C 16.5 °C 1006.7 hPa WNW 4 km/h 20.9 km/h 93% 0.76 mm 42 W/m2
17:44 17.6 °C 16.4 °C 1007 hPa WNW 0.8 km/h 20.9 km/h 93% 1.02 mm 33 W/m2
17:49 17.5 °C 16.4 °C 1007 hPa Calm   20.9 km/h 93% 1.02 mm 30 W/m2
17:54 17.4 °C 16.3 °C 1007 hPa Calm   20.9 km/h 93% 1.02 mm 28 W/m2
17:59 17.3 °C 16.1 °C 1006.7 hPa WNW 0.2 km/h 20.9 km/h 92.4% 1.02 mm 23 W/m2
18:04 17.2 °C 16 °C 1006.3 hPa NW 0.2 km/h 20.9 km/h 92.5% 1.02 mm 25 W/m2
18:09 17.3 °C 16.1 °C 1006.3 hPa NW 0.5 km/h 6.4 km/h 93% 0.51 mm 25 W/m2
18:14 17.3 °C 16.2 °C 1006.3 hPa Calm   6.4 km/h 93% 0.51 mm 25 W/m2
18:19 17.2 °C 16.1 °C 1006.3 hPa Calm   6.4 km/h 93% 0.51 mm 30 W/m2
18:24 17.2 °C 16.1 °C 1006 hPa Calm   6.4 km/h 93% 0.51 mm 30 W/m2
18:29 17.2 °C 16 °C 1005.6 hPa Calm   6.4 km/h 92.7% 0.51 mm 25 W/m2
18:34 17.1 °C 15.8 °C 1005.6 hPa Calm   6.4 km/h 92% 0.51 mm 21 W/m2
18:39 17 °C 15.9 °C 1005.3 hPa Calm   1.6 km/h 93% 0.25 mm 19 W/m2
18:44 17.1 °C 15.9 °C 1005 hPa Calm   1.6 km/h 93% 0.25 mm 16 W/m2
18:49 16.9 °C 15.7 °C 1005 hPa Calm   1.6 km/h 92.7% 0.51 mm 12 W/m2
18:54 16.8 °C 15.5 °C 1004.6 hPa Calm   1.6 km/h 92% 0.51 mm 12 W/m2
18:59 16.7 °C 15.4 °C 1004.6 hPa ENE 1.1 km/h 6.4 km/h 92% 0.51 mm 11 W/m2
19:04 16.7 °C 15.5 °C 1004.6 hPa ENE 0.3 km/h 6.4 km/h 92.9% 0.51 mm 7 W/m2
19:09 16.6 °C 15.5 °C 1005 hPa ENE 0.5 km/h 4.8 km/h 93% 0.51 mm 9 W/m2
19:14 16.6 °C 15.4 °C 1005.6 hPa Calm   4.8 km/h 93% 0.51 mm 7 W/m2
19:19 16.6 °C 15.4 °C 1006.3 hPa Calm   4.8 km/h 93% 0.76 mm 7 W/m2
19:24 16.6 °C 15.5 °C 1006.7 hPa WNW 1.1 km/h 8 km/h 93% 0.76 mm 5 W/m2
19:29 16.6 °C 15.5 °C 1006.7 hPa Calm   8 km/h 93% 1.02 mm 0 W/m2
19:34 16.6 °C 15.4 °C 1006.3 hPa Calm   8 km/h 93% 1.27 mm 7 W/m2
19:39 16.5 °C 15.4 °C 1006.3 hPa NW 1.3 km/h 9.7 km/h 93% 1.52 mm 9 W/m2
19:44 16.5 °C 15.3 °C 1006.7 hPa NW 0.2 km/h 9.7 km/h 93% 1.52 mm 5 W/m2
19:49 16.4 °C 15.3 °C 1006.7 hPa NW 0.2 km/h 9.7 km/h 93% 1.52 mm 0 W/m2
19:54 16.3 °C 15.2 °C 1006.7 hPa NW 2.1 km/h 11.3 km/h 93% 1.52 mm 0 W/m2
19:59 16.3 °C 15.2 °C 1007 hPa NW 0.6 km/h 11.3 km/h 93% 1.52 mm 0 W/m2
20:00 16.3 °C 15.2 °C 1007 hPa Calm   11.3 km/h 93% 1.52 mm 0 W/m2
20:09 16.2 °C 15.1 °C 1007 hPa WNW 3.1 km/h 14.5 km/h 93% 1.27 mm 7 W/m2
20:14 16.1 °C 15 °C 1007 hPa NNE 0.2 km/h 14.5 km/h 93% 1.27 mm 7 W/m2
20:19 16.1 °C 15 °C 1007 hPa WNW 4.8 km/h 14.5 km/h 93% 1.27 mm 7 W/m2
20:24 16 °C 14.9 °C 1007.3 hPa NW 2.3 km/h 16.1 km/h 93% 1.27 mm 5 W/m2
20:29 15.9 °C 14.8 °C 1007.3 hPa West 2.4 km/h 16.1 km/h 93% 1.27 mm 0 W/m2
20:34 15.9 °C 14.8 °C 1007.3 hPa NW 2.9 km/h 20.9 km/h 93% 1.27 mm 0 W/m2
20:39 15.9 °C 14.8 °C 1007.3 hPa NNW 2.3 km/h 20.9 km/h 92.9% 0.51 mm 0 W/m2
20:44 15.8 °C 14.6 °C 1007.7 hPa NW 1.9 km/h 20.9 km/h 92% 0.51 mm 0 W/m2
20:49 15.8 °C 14.6 °C 1007.7 hPa NW 1.4 km/h 20.9 km/h 92% 0.51 mm 0 W/m2
20:54 15.8 °C 14.6 °C 1008 hPa NW 1.4 km/h 20.9 km/h 92% 0.51 mm 0 W/m2
20:59 15.8 °C 14.6 °C 1008 hPa Calm   20.9 km/h 92% 0.51 mm 0 W/m2
21:04 15.8 °C 14.5 °C 1008 hPa Calm   20.9 km/h 92% 0.51 mm 0 W/m2
21:09 15.8 °C 14.5 °C 1008 hPa NW 2.6 km/h 16.1 km/h 92% 0 mm 0 W/m2
21:14 15.7 °C 14.4 °C 1008.4 hPa WNW 0.5 km/h 16.1 km/h 92% 0 mm 0 W/m2
21:19 15.7 °C 14.4 °C 1008.7 hPa NW 0.2 km/h 16.1 km/h 92% 0 mm 0 W/m2
21:24 15.7 °C 14.3 °C 1008.7 hPa NNW 1.4 km/h 16.1 km/h 91.5% 0 mm 0 W/m2
21:29 15.7 °C 14.2 °C 1009 hPa North 0.3 km/h 16.1 km/h 91% 0 mm 0 W/m2
21:34 15.7 °C 14.2 °C 1009 hPa NW 1.8 km/h 16.1 km/h 91% 0 mm 0 W/m2
21:39 15.7 °C 14.2 °C 1009.4 hPa WNW 0.2 km/h 16.1 km/h 91% 0 mm 0 W/m2
21:44 15.7 °C 14.1 °C 1009.4 hPa West 4.8 km/h 16.1 km/h 90.5% 0 mm 0 W/m2
21:49 15.7 °C 14 °C 1009.7 hPa WNW 6 km/h 22.5 km/h 90% 0 mm 0 W/m2
21:54 15.7 °C 14.1 °C 1009.7 hPa West 1.9 km/h 22.5 km/h 90% 0 mm 0 W/m2
21:59 15.6 °C 13.9 °C 1009.7 hPa NW 3.1 km/h 22.5 km/h 89.8% 0 mm 0 W/m2
22:03 15.6 °C 13.8 °C 1009.7 hPa WNW 2.1 km/h 22.5 km/h 89% 0 mm 0 W/m2
Hartford County Weather
Compliments of Weather Underground - 4 mb